ENV1 YMML-YSSY
Flight info
| Callsign | ENV1 |
|---|---|
| Flight time | N/A |
| Altitude | 37000 |
| Route | ML H129 DOSEL Y59 RIVET |
| Aircraft | B38M/M-SDE1FGHILORVWXY/HB1 |
Departure
| Time | 2026-05-04 11:37 |
|---|---|
| Airport | Melbourne Airport (YMML) |
Arrival
| Time | N/A |
|---|---|
| Airport | Sydney Kingsford Smith International Airport (YSSY) |
| Time | Latitude | Longitude | Altitude | Speed | Heading |
|---|---|---|---|---|---|
| 2026-05-04 10:59 | -37.68741 | 144.85419 | 340 ft | 0 kts | 262° |
| 2026-05-04 11:34 | -37.68741 | 144.85416 | 340 ft | 1 kts | 262° |
| 2026-05-04 11:34 | -37.68734 | 144.85378 | 336 ft | 8 kts | 310° |
| 2026-05-04 11:34 | -37.68647 | 144.85347 | 338 ft | 18 kts | 352° |
| 2026-05-04 11:34 | -37.68503 | 144.85289 | 354 ft | 25 kts | 311° |
| 2026-05-04 11:35 | -37.68419 | 144.85096 | 352 ft | 26 kts | 274° |
| 2026-05-04 11:35 | -37.68405 | 144.84860 | 351 ft | 28 kts | 275° |
| 2026-05-04 11:35 | -37.68391 | 144.84613 | 347 ft | 28 kts | 274° |
| 2026-05-04 11:35 | -37.68441 | 144.84390 | 353 ft | 28 kts | 217° |
| 2026-05-04 11:36 | -37.68542 | 144.84275 | 346 ft | 15 kts | 246° |
| 2026-05-04 11:36 | -37.68562 | 144.84152 | 348 ft | 14 kts | 262° |
| 2026-05-04 11:36 | -37.68547 | 144.84096 | 349 ft | 4 kts | 341° |
| 2026-05-04 11:36 | -37.68509 | 144.84086 | 352 ft | 9 kts | 351° |
| 2026-05-04 11:37 | -37.68214 | 144.84032 | 357 ft | 82 kts | 352° |
| 2026-05-04 11:37 | -37.67514 | 144.83895 | 374 ft | 144 kts | 351° |
| 2026-05-04 11:37 | -37.66375 | 144.83699 | 763 ft | 177 kts | 352° |
| 2026-05-04 11:37 | -37.65106 | 144.83462 | 1539 ft | 193 kts | 347° |
| 2026-05-04 11:38 | -37.63758 | 144.83198 | 2456 ft | 195 kts | 346° |
| 2026-05-04 11:38 | -37.62347 | 144.82910 | 3101 ft | 216 kts | 345° |
| 2026-05-04 11:38 | -37.60775 | 144.82593 | 3764 ft | 235 kts | 345° |
| 2026-05-04 11:38 | -37.59079 | 144.82481 | 4096 ft | 256 kts | 5° |
| 2026-05-04 11:39 | -37.57388 | 144.83331 | 4202 ft | 268 kts | 21° |
| 2026-05-04 11:39 | -37.55704 | 144.84367 | 4319 ft | 270 kts | 20° |
| 2026-05-04 11:40 | -37.45526 | 144.90540 | 5183 ft | 273 kts | 20° |
| 2026-05-04 11:41 | -37.43874 | 144.91728 | 6195 ft | 280 kts | 37° |
| 2026-05-04 11:41 | -37.42615 | 144.93634 | 7223 ft | 288 kts | 50° |
| 2026-05-04 11:41 | -37.41428 | 144.95696 | 8199 ft | 292 kts | 50° |
| 2026-05-04 11:41 | -37.40242 | 144.97767 | 9262 ft | 294 kts | 49° |
| 2026-05-04 11:42 | -37.39042 | 144.99876 | 10181 ft | 298 kts | 50° |
| 2026-05-04 11:42 | -37.37807 | 145.02056 | 10781 ft | 315 kts | 50° |
| 2026-05-04 11:42 | -37.36499 | 145.04366 | 11329 ft | 331 kts | 50° |
| 2026-05-04 11:42 | -37.35144 | 145.06762 | 12058 ft | 339 kts | 50° |
| 2026-05-04 11:43 | -37.33773 | 145.09183 | 12982 ft | 342 kts | 50° |
| 2026-05-04 11:43 | -37.32385 | 145.11635 | 13807 ft | 347 kts | 50° |
| 2026-05-04 11:43 | -37.30979 | 145.14115 | 14561 ft | 350 kts | 50° |
| 2026-05-04 11:43 | -37.29558 | 145.16619 | 15269 ft | 354 kts | 50° |
| 2026-05-04 11:44 | -37.28120 | 145.19152 | 15984 ft | 358 kts | 50° |
| 2026-05-04 11:44 | -37.26662 | 145.21717 | 16673 ft | 363 kts | 50° |
| 2026-05-04 11:44 | -37.25188 | 145.24310 | 17378 ft | 367 kts | 49° |
| 2026-05-04 11:44 | -37.23697 | 145.26930 | 18037 ft | 371 kts | 49° |
| 2026-05-04 11:45 | -37.22186 | 145.29582 | 18646 ft | 374 kts | 49° |
| 2026-05-04 11:45 | -37.20669 | 145.32245 | 19247 ft | 377 kts | 49° |
| 2026-05-04 11:45 | -37.19139 | 145.34926 | 19848 ft | 379 kts | 49° |
| 2026-05-04 11:45 | -37.17600 | 145.37623 | 20440 ft | 381 kts | 49° |
| 2026-05-04 11:46 | -37.16049 | 145.40336 | 21035 ft | 384 kts | 49° |
| 2026-05-04 11:46 | -37.14487 | 145.43063 | 21606 ft | 386 kts | 49° |
| 2026-05-04 11:46 | -37.12914 | 145.45809 | 22175 ft | 389 kts | 49° |
| 2026-05-04 11:46 | -37.11332 | 145.48566 | 22743 ft | 391 kts | 48° |
| 2026-05-04 11:47 | -37.09742 | 145.51337 | 23303 ft | 393 kts | 48° |
| 2026-05-04 11:47 | -37.08135 | 145.54135 | 23804 ft | 396 kts | 48° |
| 2026-05-04 11:47 | -37.06518 | 145.56947 | 24212 ft | 399 kts | 48° |
| 2026-05-04 11:47 | -37.04888 | 145.59781 | 24641 ft | 401 kts | 48° |
| 2026-05-04 11:48 | -37.03251 | 145.62624 | 25078 ft | 404 kts | 48° |
| 2026-05-04 11:48 | -37.01603 | 145.65483 | 25480 ft | 407 kts | 48° |
| 2026-05-04 11:48 | -36.99938 | 145.68369 | 25877 ft | 410 kts | 47° |
| 2026-05-04 11:48 | -36.98284 | 145.71232 | 26279 ft | 412 kts | 47° |
| 2026-05-04 11:49 | -36.96598 | 145.74151 | 26680 ft | 415 kts | 47° |
| 2026-05-04 11:49 | -36.94901 | 145.77085 | 27063 ft | 418 kts | 47° |
| 2026-05-04 11:49 | -36.93187 | 145.80045 | 27415 ft | 421 kts | 47° |
| 2026-05-04 11:49 | -36.91464 | 145.83020 | 27816 ft | 423 kts | 46° |
| 2026-05-04 11:50 | -36.89730 | 145.86009 | 28175 ft | 426 kts | 46° |
| 2026-05-04 11:50 | -36.87986 | 145.89015 | 28545 ft | 429 kts | 46° |
| 2026-05-04 11:50 | -36.86227 | 145.92042 | 28904 ft | 431 kts | 45° |
| 2026-05-04 11:50 | -36.84458 | 145.95084 | 29266 ft | 434 kts | 45° |
| 2026-05-04 11:51 | -36.82699 | 145.98107 | 29636 ft | 436 kts | 45° |
| 2026-05-04 11:51 | -36.80892 | 146.01211 | 29987 ft | 438 kts | 45° |
| 2026-05-04 11:51 | -36.79091 | 146.04299 | 30268 ft | 442 kts | 44° |
| 2026-05-04 11:51 | -36.77276 | 146.07410 | 30539 ft | 444 kts | 44° |
| 2026-05-04 11:52 | -36.75476 | 146.10492 | 30785 ft | 447 kts | 44° |
| 2026-05-04 11:52 | -36.73638 | 146.13637 | 31043 ft | 450 kts | 44° |
| 2026-05-04 11:52 | -36.71788 | 146.16799 | 31285 ft | 453 kts | 44° |
| 2026-05-04 11:52 | -36.69930 | 146.19970 | 31538 ft | 455 kts | 44° |
| 2026-05-04 11:53 | -36.68057 | 146.23165 | 31789 ft | 457 kts | 44° |
| 2026-05-04 11:53 | -36.66175 | 146.26373 | 32028 ft | 460 kts | 44° |
| 2026-05-04 11:53 | -36.64278 | 146.29604 | 32252 ft | 463 kts | 44° |
| 2026-05-04 11:53 | -36.62370 | 146.32847 | 32493 ft | 465 kts | 44° |
| 2026-05-04 11:55 | -36.48777 | 146.55880 | 34331 ft | 475 kts | 45° |
| 2026-05-04 11:55 | -36.46816 | 146.59190 | 34588 ft | 475 kts | 45° |
| 2026-05-04 11:56 | -36.44880 | 146.62455 | 34832 ft | 476 kts | 45° |
| 2026-05-04 11:56 | -36.42917 | 146.65762 | 35080 ft | 476 kts | 45° |
| 2026-05-04 11:56 | -36.40946 | 146.69076 | 35287 ft | 477 kts | 45° |
| 2026-05-04 11:56 | -36.38977 | 146.72388 | 35535 ft | 478 kts | 45° |
| 2026-05-04 11:57 | -36.37001 | 146.75707 | 35771 ft | 478 kts | 45° |
| 2026-05-04 11:57 | -36.35021 | 146.79029 | 35994 ft | 479 kts | 45° |
| 2026-05-04 11:57 | -36.33038 | 146.82353 | 36199 ft | 479 kts | 45° |
| 2026-05-04 11:57 | -36.31052 | 146.85679 | 36418 ft | 480 kts | 45° |
| 2026-05-04 11:58 | -36.29062 | 146.89009 | 36624 ft | 480 kts | 46° |
| 2026-05-04 11:58 | -36.27074 | 146.92332 | 36812 ft | 481 kts | 46° |
| 2026-05-04 11:58 | -36.25082 | 146.95661 | 36995 ft | 482 kts | 46° |
| 2026-05-04 11:59 | -36.21079 | 147.02339 | 37080 ft | 482 kts | 46° |
| 2026-05-04 11:59 | -36.17085 | 147.08979 | 37079 ft | 481 kts | 46° |
| 2026-05-04 12:00 | -36.13078 | 147.15632 | 37087 ft | 482 kts | 46° |
| 2026-05-04 12:00 | -36.09067 | 147.22281 | 37087 ft | 482 kts | 46° |
| 2026-05-04 12:01 | -36.05057 | 147.28913 | 37082 ft | 481 kts | 46° |